Ursa Minor — ICGH — position and weather

sailwx.info

Track history (hours):
 
Tides and Currents Weather Stations Pressure Air Temp Water Temp Dewpoint Dewpoint Depression Visibility Wind Speed Wind Dir Waves Ship Positions

Ursa Minor

Last reported at 2016-Jul-30 20:32 UTC. Time now 2016-Jul-30 20:44 UTC.
Position N 44°24' E 008°52'.

Length 205 m; draft 9 m.

Type: Ship. MMSI: 247082300.

Date/timePositionNaut miles runAvg speedWind from/ knotsBaromVisibWave heightAir tempDewpointWater temp
2016-Jul-30 20:32N 44°24' E 008°52'0 0.0
2016-Jul-30 19:32N 44°24' E 008°52'0 0.2
2016-Jul-30 18:33N 44°24' E 008°52'2 2.3
2016-Jul-30 17:33N 44°23' E 008°55'0 0.2
2016-Jul-30 16:33N 44°23' E 008°55'1 1.1
2016-Jul-30 15:33N 44°22' E 008°54'0 0.1
2016-Jul-30 14:33N 44°22' E 008°54'0 0.0
2016-Jul-30 13:33N 44°22' E 008°54'0 0.4
2016-Jul-30 12:33N 44°22' E 008°54'1 0.7
2016-Jul-30 11:33N 44°22' E 008°55'9 8.5
2016-Jul-30 10:33N 44°17' E 009°03'1212.0
2016-Jul-30 09:33N 44°08' E 009°15'1212.0
2016-Jul-30 08:33N 43°59' E 009°26'1211.6
2016-Jul-30 07:33N 43°50' E 009°36'1111.2
2016-Jul-30 06:33N 43°42' E 009°47'1111.0
2016-Jul-30 05:33N 43°33' E 009°56'1110.9
2016-Jul-30 04:33N 43°25' E 010°05'1111.1
2016-Jul-30 03:33N 43°15' E 010°13'1611.2
2016-Jul-30 02:09N 43°01' E 010°23'811.0
2016-Jul-30 01:24N 42°54' E 010°29'1110.5
2016-Jul-30 00:19N 42°45' E 010°38'810.9
2016-Jul-29 23:33N 42°38' E 010°45'1110.9
2016-Jul-29 22:33N 42°29' E 010°54'18710.3
2016-Jul-29 04:29N 40°28' E 014°03'7 7.7
2016-Jul-29 03:33N 40°23' E 014°09'120 9.2
2016-Jul-28 14:34N 38°39' E 015°26'1211.7
2016-Jul-28 13:33N 38°28' E 015°34'1111.3
2016-Jul-28 12:34N 38°19' E 015°42'9 9.2
2016-Jul-28 11:34N 38°11' E 015°37'8 8.4
2016-Jul-28 10:34N 38°02' E 015°36'1010.2
2016-Jul-28 09:33N 37°54' E 015°44'  
2016-Jul-25 13:15N 37°53' E 015°48'810.9
2016-Jul-25 12:33N 37°57' E 015°39'1211.5
2016-Jul-25 11:33N 38°08' E 015°35'1010.0
2016-Jul-25 10:33N 38°17' E 015°40'1211.5
2016-Jul-25 09:33N 38°27' E 015°34'1211.7
2016-Jul-25 08:31N 38°37' E 015°25'1211.8
2016-Jul-25 07:32N 38°47' E 015°18'11012.0
2016-Jul-24 22:23N 40°24' E 014°09'1012.0
2016-Jul-24 21:34N 40°31' E 014°01'1312.2
2016-Jul-24 20:29N 40°39' E 013°47'8111.6
2016-Jul-24 13:33N 41°30' E 012°24'15411.9
2016-Jul-24 00:33N 43°25' E 010°05'1212.3
2016-Jul-23 23:33N 43°35' E 009°55'1212.3
2016-Jul-23 22:33N 43°44' E 009°43'1212.3
2016-Jul-23 21:33N 43°53' E 009°32'1212.2
2016-Jul-23 20:33N 44°02' E 009°21'1211.7
2016-Jul-23 19:33N 44°11' E 009°10'1211.7
2016-Jul-23 18:34N 44°19' E 008°58'7 6.7
2016-Jul-23 17:33N 44°24' E 008°52'0 0.0
2016-Jul-23 16:33N 44°24' E 008°52'0 0.0
2016-Jul-23 15:33N 44°24' E 008°52'0 0.0
2016-Jul-23 14:33N 44°24' E 008°52'0 0.0
2016-Jul-23 13:33N 44°24' E 008°52'0 0.0
2016-Jul-23 12:33N 44°24' E 008°52'0 0.0
2016-Jul-23 11:33N 44°24' E 008°52'0 0.0
2016-Jul-23 10:33N 44°24' E 008°52'0 0.0
2016-Jul-23 09:33N 44°24' E 008°52'0 0.0
2016-Jul-23 08:33N 44°24' E 008°52'0 0.0
2016-Jul-23 07:33N 44°24' E 008°52'0 0.0
2016-Jul-23 06:33N 44°24' E 008°52'0 0.1
2016-Jul-23 04:33N 44°24' E 008°52'1 0.8
2016-Jul-23 03:33N 44°24' E 008°53'8 7.8
2016-Jul-23 02:33N 44°19' E 009°01'1111.4
2016-Jul-23 01:33N 44°10' E 009°12'1211.6
2016-Jul-23 00:33N 44°02' E 009°22'1111.3
2016-Jul-22 23:33N 43°53' E 009°33'1111.1
2016-Jul-22 22:33N 43°45' E 009°43'1111.0
2016-Jul-22 21:33N 43°36' E 009°52'1110.8
2016-Jul-22 20:33N 43°28' E 010°02'1111.0
2016-Jul-22 19:33N 43°19' E 010°10'1110.9
2016-Jul-22 18:33N 43°09' E 010°17'1111.0
2016-Jul-22 17:33N 42°60' E 010°25'1110.6
2016-Jul-22 16:33N 42°50' E 010°32'1110.8
2016-Jul-22 15:32N 42°42' E 010°41'1110.9
2016-Jul-22 14:31N 42°33' E 010°50'1111.2
2016-Jul-22 13:33N 42°25' E 010°60'10311.4
2016-Jul-22 04:29N 41°17' E 012°45'1111.5
2016-Jul-22 03:33N 41°11' E 012°56'1211.7
2016-Jul-22 02:33N 41°03' E 013°08'1211.6
2016-Jul-22 01:33N 40°56' E 013°20'1211.5
2016-Jul-22 00:33N 40°48' E 013°31'1111.5
2016-Jul-21 23:33N 40°41' E 013°43'1111.2
2016-Jul-21 22:33N 40°34' E 013°54'1111.1
2016-Jul-21 21:33N 40°27' E 014°06'1110.8
2016-Jul-21 20:33N 40°18' E 014°13'1211.2
2016-Jul-21 19:27N 40°07' E 014°21'3311.4
2016-Jul-21 16:33N 39°38' E 014°42'4611.5
2016-Jul-21 12:33N 38°58' E 015°11'1411.1
2016-Jul-21 11:18N 38°46' E 015°20'911.3
2016-Jul-21 10:30N 38°38' E 015°26'1111.3
2016-Jul-21 09:33N 38°29' E 015°33'1110.9
2016-Jul-21 08:33N 38°20' E 015°40'7 6.8
2016-Jul-21 07:33N 38°14' E 015°37'1111.0
2016-Jul-21 06:33N 38°03' E 015°36'1111.1
2016-Jul-21 05:33N 37°54' E 015°45'  
Track history (hours):
 
Tides and Currents Weather Stations Pressure Air Temp Water Temp Dewpoint Dewpoint Depression Visibility Wind Speed Wind Dir Waves Ship Positions

Ursa Minor

Last reported at 2016-Jul-30 20:32 UTC. Time now 2016-Jul-30 20:44 UTC.
Position N 44°24' E 008°52'.

Length 205 m; draft 9 m.

Type: Ship. MMSI: 247082300.

Date/timePositionNaut miles runAvg speedWind from/ knotsBaromVisibWave heightAir tempDewpointWater temp
2016-Jul-30 20:32N 44°24' E 008°52'0 0.0
2016-Jul-30 19:32N 44°24' E 008°52'0 0.2
2016-Jul-30 18:33N 44°24' E 008°52'2 2.3
2016-Jul-30 17:33N 44°23' E 008°55'0 0.2
2016-Jul-30 16:33N 44°23' E 008°55'1 1.1
2016-Jul-30 15:33N 44°22' E 008°54'0 0.1
2016-Jul-30 14:33N 44°22' E 008°54'0 0.0
2016-Jul-30 13:33N 44°22' E 008°54'0 0.4
2016-Jul-30 12:33N 44°22' E 008°54'1 0.7
2016-Jul-30 11:33N 44°22' E 008°55'9 8.5
2016-Jul-30 10:33N 44°17' E 009°03'1212.0
2016-Jul-30 09:33N 44°08' E 009°15'1212.0
2016-Jul-30 08:33N 43°59' E 009°26'1211.6
2016-Jul-30 07:33N 43°50' E 009°36'1111.2
2016-Jul-30 06:33N 43°42' E 009°47'1111.0
2016-Jul-30 05:33N 43°33' E 009°56'1110.9
2016-Jul-30 04:33N 43°25' E 010°05'1111.1
2016-Jul-30 03:33N 43°15' E 010°13'1611.2
2016-Jul-30 02:09N 43°01' E 010°23'811.0
2016-Jul-30 01:24N 42°54' E 010°29'1110.5
2016-Jul-30 00:19N 42°45' E 010°38'810.9
2016-Jul-29 23:33N 42°38' E 010°45'1110.9
2016-Jul-29 22:33N 42°29' E 010°54'18710.3
2016-Jul-29 04:29N 40°28' E 014°03'7 7.7
2016-Jul-29 03:33N 40°23' E 014°09'120 9.2
2016-Jul-28 14:34N 38°39' E 015°26'1211.7
2016-Jul-28 13:33N 38°28' E 015°34'1111.3
2016-Jul-28 12:34N 38°19' E 015°42'9 9.2
2016-Jul-28 11:34N 38°11' E 015°37'8 8.4
2016-Jul-28 10:34N 38°02' E 015°36'1010.2
2016-Jul-28 09:33N 37°54' E 015°44'  
2016-Jul-25 13:15N 37°53' E 015°48'810.9
2016-Jul-25 12:33N 37°57' E 015°39'1211.5
2016-Jul-25 11:33N 38°08' E 015°35'1010.0
2016-Jul-25 10:33N 38°17' E 015°40'1211.5
2016-Jul-25 09:33N 38°27' E 015°34'1211.7
2016-Jul-25 08:31N 38°37' E 015°25'1211.8
2016-Jul-25 07:32N 38°47' E 015°18'11012.0
2016-Jul-24 22:23N 40°24' E 014°09'1012.0
2016-Jul-24 21:34N 40°31' E 014°01'1312.2
2016-Jul-24 20:29N 40°39' E 013°47'8111.6
2016-Jul-24 13:33N 41°30' E 012°24'15411.9
2016-Jul-24 00:33N 43°25' E 010°05'1212.3
2016-Jul-23 23:33N 43°35' E 009°55'1212.3
2016-Jul-23 22:33N 43°44' E 009°43'1212.3
2016-Jul-23 21:33N 43°53' E 009°32'1212.2
2016-Jul-23 20:33N 44°02' E 009°21'1211.7
2016-Jul-23 19:33N 44°11' E 009°10'1211.7
2016-Jul-23 18:34N 44°19' E 008°58'7 6.7
2016-Jul-23 17:33N 44°24' E 008°52'0 0.0
2016-Jul-23 16:33N 44°24' E 008°52'0 0.0
2016-Jul-23 15:33N 44°24' E 008°52'0 0.0
2016-Jul-23 14:33N 44°24' E 008°52'0 0.0
2016-Jul-23 13:33N 44°24' E 008°52'0 0.0
2016-Jul-23 12:33N 44°24' E 008°52'0 0.0
2016-Jul-23 11:33N 44°24' E 008°52'0 0.0
2016-Jul-23 10:33N 44°24' E 008°52'0 0.0
2016-Jul-23 09:33N 44°24' E 008°52'0 0.0
2016-Jul-23 08:33N 44°24' E 008°52'0 0.0
2016-Jul-23 07:33N 44°24' E 008°52'0 0.0
2016-Jul-23 06:33N 44°24' E 008°52'0 0.1
2016-Jul-23 04:33N 44°24' E 008°52'1 0.8
2016-Jul-23 03:33N 44°24' E 008°53'8 7.8
2016-Jul-23 02:33N 44°19' E 009°01'1111.4
2016-Jul-23 01:33N 44°10' E 009°12'1211.6
2016-Jul-23 00:33N 44°02' E 009°22'1111.3
2016-Jul-22 23:33N 43°53' E 009°33'1111.1
2016-Jul-22 22:33N 43°45' E 009°43'1111.0
2016-Jul-22 21:33N 43°36' E 009°52'1110.8
2016-Jul-22 20:33N 43°28' E 010°02'1111.0
2016-Jul-22 19:33N 43°19' E 010°10'1110.9
2016-Jul-22 18:33N 43°09' E 010°17'1111.0
2016-Jul-22 17:33N 42°60' E 010°25'1110.6
2016-Jul-22 16:33N 42°50' E 010°32'1110.8
2016-Jul-22 15:32N 42°42' E 010°41'1110.9
2016-Jul-22 14:31N 42°33' E 010°50'1111.2
2016-Jul-22 13:33N 42°25' E 010°60'10311.4
2016-Jul-22 04:29N 41°17' E 012°45'1111.5
2016-Jul-22 03:33N 41°11' E 012°56'1211.7
2016-Jul-22 02:33N 41°03' E 013°08'1211.6
2016-Jul-22 01:33N 40°56' E 013°20'1211.5
2016-Jul-22 00:33N 40°48' E 013°31'1111.5
2016-Jul-21 23:33N 40°41' E 013°43'1111.2
2016-Jul-21 22:33N 40°34' E 013°54'1111.1
2016-Jul-21 21:33N 40°27' E 014°06'1110.8
2016-Jul-21 20:33N 40°18' E 014°13'1211.2
2016-Jul-21 19:27N 40°07' E 014°21'3311.4
2016-Jul-21 16:33N 39°38' E 014°42'4611.5
2016-Jul-21 12:33N 38°58' E 015°11'1411.1
2016-Jul-21 11:18N 38°46' E 015°20'911.3
2016-Jul-21 10:30N 38°38' E 015°26'1111.3
2016-Jul-21 09:33N 38°29' E 015°33'1110.9
2016-Jul-21 08:33N 38°20' E 015°40'7 6.8
2016-Jul-21 07:33N 38°14' E 015°37'1111.0
2016-Jul-21 06:33N 38°03' E 015°36'1111.1
2016-Jul-21 05:33N 37°54' E 015°45'  

Dump ship's entire track history